Logo AVAMET
Benvolgut visitant, si us plau, ingressa Recuperar contrasenya

Inforatge Dénia Santa Llúcia

Dades diàries. Acumulats / Últims 30 dies disponibles

Data Temperatura (°C) Humitat rel. (%) Pressió rel. (hPa) Vent (km/h) Precipitació
Mínima Mitjana Màxima Amplitud
tèrmica
Mínima Mitjana Màxima Mínima Mitjana Màxima Predom. Mitjana Ràfega
màxima
Total
(mm)
Índex-n
Mínima Mitjana Màxima Mínima Mitjana Màxima n
0 a 1
P0 max
mm 5'
Dades mensuals acumulades fins l'últim dia disponible
05/2019 12,2 15,5 21,8 19,1 18,2 23,7 31,3 19,1 28 66 95 1.005 1.018 1.029   6,5 68,5 0,4
Dades anuals acumulades fins l'últim dia disponible
2019 6,4 11,7 21,8 14,9 11,3 18,6 31,3 24,9 14 63 98 998 1.023 1.039   6,2 69,3 368,2
Últims 30 dies disponibles
20-05-2019 14,9     19,1     23,9 9,0 29 56 73 1.015 1.016 1.018 SSE 7,7 53,7 0,0
19-05-2019 13,8     18,4     23,4 9,6 44 64 85 1.013 1.014 1.016 S 4,2 32,2 0,0
18-05-2019 15,8     17,4     20,3 4,5 48 61 75 1.012 1.013 1.014 SSE 5,5 35,4 0,0
17-05-2019 16,1     19,6     23,9 7,8 33 54 86 1.005 1.009 1.014 SO 12,3 68,5 0,0
16-05-2019 16,2     18,3     21,7 5,5 58 74 84 1.008 1.014 1.019 SSO 12,4 68,5 0,0
15-05-2019 15,9     18,4     20,7 4,8 50 74 85 1.015 1.016 1.019 SE 4,4 25,9 0,0
14-05-2019 13,6     19,1     24,0 10,4 31 58 79 1.017 1.022 1.025 SSE 8,1 56,3 0,0
13-05-2019 16,9     19,6     24,3 7,4 42 64 80 1.022 1.024 1.025 SSE 6,9 45,0 0,0
12-05-2019 15,7     20,0     25,8 10,1 45 69 90 1.023 1.026 1.029 SSE 3,6 38,9 0,0
11-05-2019 18,0     21,3     28,3 10,3 36 69 84 1.018 1.022 1.027 S 4,5 24,1 0,0
10-05-2019 21,8     26,2     31,3 9,5 36 49 63 1.015 1.017 1.018 SO 7,9 43,5 0,0
09-05-2019 20,7     23,8     27,7 7,0 45 53 64 1.015 1.016 1.018 SO 8,2 42,6 0,0
08-05-2019 15,1     22,2     28,8 13,7 42 66 95 1.013 1.015 1.019 S 4,9 45,0 0,0
07-05-2019 15,6     20,3     28,2 12,6 35 69 90 1.016 1.020 1.023 SSE 5,9 43,5 0,0
06-05-2019 13,6     16,7     22,3 8,7 57 78 88 1.020 1.022 1.024 SSO 4,8 38,9 0,0
05-05-2019 14,6     16,7     20,8 6,2 46 67 85 1.015 1.019 1.021 SSE 6,4 40,7 0,0
04-05-2019 12,2     15,9     20,8 8,6 45 66 89 1.013 1.016 1.018 SSO 7,9 51,9 0,0
03-05-2019 12,4     15,0     18,2 5,8 73 80 90 1.014 1.016 1.019 SSE 4,6 27,8 0,4
02-05-2019 14,3     16,3     18,7 4,4 58 81 90 1.018 1.019 1.021 SSE 3,4 18,5 0,0
01-05-2019 13,7     17,5     21,6 7,9 28 61 89 1.015 1.018 1.020 SE 5,4 57,4 0,0
30-04-2019 13,7     17,4     21,4 7,7 53 72 86 1.019 1.021 1.022 SSE 4,9 44,4 0,0
29-04-2019 14,3     16,6     20,8 6,5 63 78 89 1.020 1.023 1.025 SSO 7,0 46,7 0,0
28-04-2019 14,1     18,5     24,6 10,5 34 60 83 1.022 1.026 1.028 SSE 2,9 24,1 0,0
27-04-2019 14,5     18,3     23,1 8,6 36 53 72 1.027 1.029 1.031 SSO 5,5 27,8 0,0
26-04-2019 13,0     17,5     22,1 9,1 32 48 63 1.022 1.025 1.028 SSO 9,6 40,7 0,0
25-04-2019 16,4     18,6     21,2 4,8 47 60 70 1.013 1.016 1.022 S 7,0 43,5 0,0
24-04-2019 11,7     16,0     19,8 8,1 42 55 67 1.008 1.013 1.015 SSO 10,8 58,0 0,0
23-04-2019 12,6     16,3     22,2 9,6 53 72 88 1.002 1.003 1.008 SSE 4,5 33,9 2,4
22-04-2019 11,5     13,5     16,2 4,7 70 89 98 1.004 1.005 1.009 SO 10,4 40,7 36,0 0,35 0,80
21-04-2019 12,8     13,8     14,6 1,8 82 92 98 1.009 1.013 1.019 SE 11,7 42,6 230,8 0,34 0,40
Últims 13 mesos disponibles
04/2019 9,7 12,9 16,4 15,6 14,6 18,9 24,6 14,9 47 69 94 1.003 1.016 1.029 SSE 7,7 68,5 322,2
03/2019 8,3 11,7 17,8 15,4 11,9 19,2 27,7 19,4 26 60 91 1.015 1.026 1.034 SSE 5,4 51,9 39,6
02/2019 7,7 9,9 13,6 13,2 12,5 17,1 24,6 16,9 36 63 85 999 1.028 1.037 SSE 5,3 69,3 0,0
01/2019 6,4 9,5 14,2 12,3 11,3 15,6 21,2 14,8 39 60 83 1.007 1.023 1.034 O 6,4 66,7 6,0
12/2018 8,2 11,2 15,3 14,4 13,2 18,2 22,7 14,5 45 68 89 1.012 1.029 1.034 SSE 3,8 66,7 28,8
11/2018 10,8 13,6 16,8 16,1 15,6 18,8 23,4 12,6 44 68 94 1.004 1.019 1.027 OSO 5,6 66,7 91,8
10/2018 9,1 16,4 20,5 19,0 14,0 22,4 28,7 19,6 43 72 89 1.004 1.017 1.029 SSE 5,3 69,3 112,2
09/2018 21,7 22,8 24,1 25,2 26,0 28,2 31,8 10,1 74 80 87 1.016 1.021 1.026 4,3 53,7 20,2
08/2018 21,4 23,4 24,7 26,7 24,2 30,5 34,1 12,7 54 70 86 1.018 1.020 1.024 5,1 55,6 56,8
Tots els anys disponibles
Temperatura (°C)
Humitat relativa (%)
Velocitat del vent i ràfega màxima (km/h)
Direcció del vent (°)
Pressió (hPa)
Precipitació (mm)
Nota sobre les dades: s'avisa a l'usuari de la provisionalitat i no oficialitat d'aquestes dades
Logo AVAMET blanc
Web allotjada a Sollutia
Llicència de Creative CommonsLa web d'AVAMET i els seus continguts estan subjectes a una llicència de
Reconeixement - No Comercial - Compartir igual
Properes estacions: Altea - Club Nàutic d'Altea (Soci), Ontinyent - El Pilar (Soci), Ares del Maestrat (Ajuntament Soci), Catadau - L'Altet (Inforatge)     - - - - -      Últimes estacions: Jacarilla - centro (MeteOrihuela), Elx - Maitino/Vallverda/Velarde/Matola/Ferriol (Soci TiempoElche.com), Orihuela - Playa Flamenca (MeteOrihuela), Puçol - Ciutat Jardí (Soci), Alzira - La Casella (Soci) - - -